createdAt,value
2023-01-22T00:03:14.955Z,168.40
2023-01-22T00:08:16.197Z,195.50
2023-01-22T00:13:14.378Z,184.50
2023-01-22T00:18:12.558Z,214.80
2023-01-22T00:23:12.749Z,211.20
2023-01-22T00:28:12.939Z,174.50
2023-01-22T00:33:10.111Z,145.20
2023-01-22T00:38:09.310Z,128.00
2023-01-22T00:43:09.478Z,147.80
2023-01-22T00:48:07.652Z,165.20
2023-01-22T00:53:07.835Z,131.10
2023-01-22T00:58:06.006Z,142.90
2023-01-22T01:03:06.181Z,172.40
2023-01-22T01:08:04.342Z,136.30
2023-01-22T01:13:03.531Z,165.50
2023-01-22T01:18:03.697Z,188.70
2023-01-22T01:23:01.892Z,161.30
2023-01-22T01:28:01.070Z,132.10
2023-01-22T01:33:02.253Z,96.80
2023-01-22T01:38:00.440Z,91.40
2023-01-22T01:42:58.615Z,79.10
2023-01-22T01:47:58.806Z,74.50
2023-01-22T01:52:57.972Z,66.60
2023-01-22T01:57:56.228Z,66.70
2023-01-22T02:02:55.425Z,59.30
2023-01-22T02:07:56.643Z,51.30
2023-01-22T02:12:54.822Z,43.40
2023-01-22T02:17:53.015Z,43.20
2023-01-22T02:22:52.194Z,41.20
2023-01-22T02:27:51.419Z,37.30
2023-01-22T02:32:52.614Z,35.00
2023-01-22T02:37:49.785Z,32.40
2023-01-22T02:42:49.005Z,30.50
2023-01-22T02:47:50.202Z,29.00
2023-01-22T02:52:48.376Z,26.20
2023-01-22T02:57:46.552Z,26.30
2023-01-22T03:02:45.721Z,24.90
2023-01-22T03:07:45.930Z,23.90
2023-01-22T03:12:44.103Z,23.90
2023-01-22T03:17:44.343Z,22.90
2023-01-22T03:22:42.546Z,21.00
2023-01-22T03:27:41.748Z,20.10
2023-01-22T03:32:41.973Z,18.30
2023-01-22T03:37:40.189Z,18.30
2023-01-22T03:42:40.371Z,16.60
2023-01-22T03:47:38.658Z,16.60
2023-01-22T03:52:37.859Z,15.90
2023-01-22T03:57:37.039Z,14.10
2023-01-22T04:02:37.282Z,14.40
2023-01-22T04:07:36.459Z,13.60
2023-01-22T04:12:34.689Z,13.30
2023-01-22T04:17:34.876Z,13.50
2023-01-22T04:22:34.063Z,12.40
2023-01-22T04:27:32.231Z,12.20
2023-01-22T04:32:30.418Z,11.70
2023-01-22T04:37:31.597Z,11.30
2023-01-22T04:42:30.802Z,11.40
2023-01-22T04:47:28.965Z,11.30
2023-01-22T04:52:28.242Z,10.60
2023-01-22T04:57:27.436Z,10.60
2023-01-22T05:02:27.676Z,10.20
2023-01-22T05:07:27.871Z,10.70
2023-01-22T05:12:25.059Z,9.60
2023-01-22T05:17:25.288Z,9.80
2023-01-22T05:22:23.474Z,9.40
2023-01-22T05:27:23.746Z,8.90
2023-01-22T05:32:21.933Z,9.50
2023-01-22T05:37:21.172Z,9.50
2023-01-22T05:42:21.430Z,9.30
2023-01-22T05:47:20.854Z,9.30
2023-01-22T05:52:18.836Z,8.70
2023-01-22T05:57:18.008Z,8.10
2023-01-22T06:02:17.317Z,9.20
2023-01-22T06:07:17.529Z,9.00
2023-01-22T06:12:15.719Z,8.30
2023-01-22T06:17:14.934Z,8.20
2023-01-22T06:22:15.115Z,9.00
2023-01-22T06:27:14.398Z,8.10
2023-01-22T06:32:12.754Z,8.60
2023-01-22T06:37:13.097Z,8.80
2023-01-22T06:42:11.227Z,8.60
2023-01-22T06:47:10.387Z,8.90
2023-01-22T06:52:11.545Z,9.80
2023-01-22T06:57:09.749Z,10.30
2023-01-22T07:02:06.897Z,10.10
2023-01-22T07:07:08.048Z,9.50
2023-01-22T07:12:07.382Z,10.10
2023-01-22T07:17:06.539Z,9.40
2023-01-22T07:22:05.689Z,10.10
2023-01-22T07:27:04.873Z,10.00
2023-01-22T07:32:04.063Z,8.60
2023-01-22T07:37:04.242Z,9.30
2023-01-22T07:42:02.405Z,8.80
2023-01-22T07:47:01.585Z,9.00
2023-01-22T07:52:00.703Z,8.30
2023-01-22T07:56:59.015Z,10.30
2023-01-22T08:01:58.355Z,7.90
2023-01-22T08:06:58.492Z,9.30
2023-01-22T08:11:57.835Z,9.30
2023-01-22T08:16:57.157Z,10.00
2023-01-22T08:21:56.259Z,10.20
2023-01-22T08:26:55.604Z,11.00
2023-01-22T08:31:53.999Z,11.00
2023-01-22T08:36:53.129Z,11.10
2023-01-22T08:41:52.418Z,11.80
2023-01-22T08:46:52.715Z,10.20
2023-01-22T08:51:52.047Z,11.20
2023-01-22T08:56:50.338Z,12.00
2023-01-22T09:01:50.743Z,10.00
2023-01-22T09:06:48.848Z,10.00
2023-01-22T09:11:48.234Z,8.30
2023-01-22T09:16:47.438Z,8.20
2023-01-22T09:21:46.614Z,9.30
2023-01-22T09:26:46.800Z,14.60
2023-01-22T09:31:44.976Z,15.30
2023-01-22T09:36:45.098Z,75.10
2023-01-22T09:41:44.388Z,90.10
2023-01-22T09:46:42.689Z,67.40
2023-01-22T09:51:42.065Z,64.50
2023-01-22T09:56:41.197Z,52.40
2023-01-22T10:01:40.538Z,76.50
2023-01-22T10:06:39.847Z,92.30
2023-01-22T10:11:38.164Z,139.40
2023-01-22T10:16:38.540Z,152.80
2023-01-22T10:21:37.701Z,171.90
2023-01-22T10:26:38.856Z,112.80
2023-01-22T10:31:36.219Z,87.50
2023-01-22T10:36:37.364Z,67.50
2023-01-22T10:41:34.705Z,59.90
2023-01-22T10:46:34.025Z,49.30
2023-01-22T10:51:34.124Z,43.40
2023-01-22T10:56:34.451Z,35.60
2023-01-22T11:01:32.722Z,33.80
2023-01-22T11:06:30.842Z,30.40
2023-01-22T11:11:30.170Z,26.10
2023-01-22T11:16:29.453Z,24.40
2023-01-22T11:21:30.558Z,23.30
2023-01-22T11:26:27.884Z,19.40
2023-01-22T11:31:27.240Z,22.80
2023-01-22T11:36:26.419Z,22.60
2023-01-22T11:41:27.734Z,21.10
2023-01-22T11:46:25.066Z,16.80
2023-01-22T11:51:25.383Z,16.20
2023-01-22T11:56:24.807Z,16.20
2023-01-22T12:01:24.966Z,14.40
2023-01-22T12:06:22.191Z,15.10
2023-01-22T12:11:22.585Z,14.10
2023-01-22T12:16:21.658Z,14.10
2023-01-22T12:21:21.097Z,13.40
2023-01-22T12:26:20.139Z,12.70
2023-01-22T12:31:19.414Z,13.30
2023-01-22T12:36:18.887Z,12.30
2023-01-22T12:41:17.900Z,11.30
2023-01-22T12:46:16.181Z,11.80
2023-01-22T12:51:15.321Z,12.10
2023-01-22T12:56:14.513Z,10.30
2023-01-22T13:01:13.693Z,11.20
2023-01-22T13:06:13.886Z,11.50
2023-01-22T13:11:12.065Z,11.30
2023-01-22T13:16:12.429Z,10.60
2023-01-22T13:21:12.427Z,10.70
2023-01-22T13:26:10.743Z,10.60
2023-01-22T13:31:18.384Z,10.70
2023-01-22T13:36:09.089Z,11.30
2023-01-22T13:41:07.473Z,10.50
2023-01-22T13:46:07.814Z,10.30
2023-01-22T13:51:05.942Z,10.40
2023-01-22T13:56:05.526Z,59.70
2023-01-22T14:01:03.255Z,66.80
2023-01-22T14:06:04.480Z,61.30
2023-01-22T14:11:03.599Z,95.80
2023-01-22T14:16:02.233Z,70.70
2023-01-22T14:21:01.109Z,76.60
2023-01-22T14:26:00.604Z,163.10
2023-01-22T14:31:00.527Z,96.70
2023-01-22T14:35:59.036Z,103.40
2023-01-22T14:40:57.365Z,137.70
2023-01-22T14:45:57.594Z,90.90
2023-01-22T14:50:58.617Z,75.50
2023-01-22T14:55:56.291Z,115.50
2023-01-22T15:00:56.047Z,52.00
2023-01-22T15:05:54.371Z,38.90
2023-01-22T15:10:53.536Z,44.10
2023-01-22T15:15:52.913Z,28.60
2023-01-22T15:20:52.985Z,38.10
2023-01-22T15:25:51.325Z,92.10
2023-01-22T15:30:50.226Z,68.00
2023-01-22T15:35:49.415Z,64.10
2023-01-22T15:40:48.827Z,121.60
2023-01-22T15:45:47.878Z,99.50
2023-01-22T15:50:48.538Z,83.50
2023-01-22T15:55:46.570Z,129.90
2023-01-22T16:00:48.724Z,107.60
2023-01-22T16:05:44.843Z,151.10
2023-01-22T16:10:44.358Z,142.10
2023-01-22T16:15:44.804Z,113.20
2023-01-22T16:20:43.874Z,94.70
2023-01-22T16:25:40.717Z,86.10
2023-01-22T16:30:41.283Z,78.00
2023-01-22T16:35:40.108Z,58.80
2023-01-22T16:40:39.351Z,113.90
2023-01-22T16:45:38.796Z,87.60
2023-01-22T16:50:38.809Z,78.50
2023-01-22T16:55:39.059Z,111.70
2023-01-22T17:00:37.727Z,100.70
2023-01-22T17:05:35.888Z,83.50
2023-01-22T17:10:34.751Z,76.90
2023-01-22T17:15:34.327Z,92.80
2023-01-22T17:20:34.578Z,76.00
2023-01-22T17:25:35.834Z,59.80
2023-01-22T17:30:30.954Z,107.10
2023-01-22T17:35:32.337Z,82.30
2023-01-22T17:40:30.745Z,65.20
2023-01-22T17:45:30.799Z,53.60
2023-01-22T17:50:33.351Z,101.50
2023-01-22T17:55:29.215Z,76.70
2023-01-22T18:00:28.082Z,64.90
2023-01-22T18:05:28.201Z,58.30
2023-01-22T18:10:25.748Z,95.80
2023-01-22T18:15:27.015Z,77.20
2023-01-22T18:20:24.462Z,59.50
2023-01-22T18:25:24.202Z,50.00
2023-01-22T18:30:24.945Z,41.60
2023-01-22T18:35:22.209Z,37.10
2023-01-22T18:40:21.710Z,31.90
2023-01-22T18:45:21.135Z,29.30
2023-01-22T18:50:21.085Z,26.30
2023-01-22T18:55:19.474Z,22.40
2023-01-22T19:00:18.719Z,19.40
2023-01-22T19:05:17.208Z,18.70
2023-01-22T19:10:16.657Z,16.10
2023-01-22T19:15:16.710Z,15.40
2023-01-22T19:20:16.540Z,15.20
2023-01-22T19:25:14.864Z,15.00
2023-01-22T19:30:14.555Z,14.10
2023-01-22T19:35:14.147Z,12.80
2023-01-22T19:40:13.398Z,12.00
2023-01-22T19:45:11.333Z,12.40
2023-01-22T19:50:10.943Z,12.50
2023-01-22T19:55:10.195Z,10.30
2023-01-22T20:00:09.440Z,10.80
2023-01-22T20:05:09.301Z,56.80
2023-01-22T20:10:06.821Z,51.40
2023-01-22T20:15:08.234Z,103.30
2023-01-22T20:20:06.547Z,77.30
2023-01-22T20:25:06.763Z,61.30
2023-01-22T20:30:06.027Z,49.60
2023-01-22T20:35:05.024Z,84.40
2023-01-22T20:40:03.923Z,70.20
2023-01-22T20:45:03.434Z,60.40
2023-01-22T20:50:03.192Z,43.80
2023-01-22T20:55:02.810Z,75.80
2023-01-22T21:00:01.737Z,85.10
2023-01-22T21:05:00.980Z,62.10
2023-01-22T21:09:59.231Z,50.30
2023-01-22T21:15:00.144Z,38.30
2023-01-22T21:19:59.819Z,40.30
2023-01-22T21:24:57.006Z,62.90
2023-01-22T21:29:56.038Z,60.80
2023-01-22T21:34:55.174Z,74.90
2023-01-22T21:39:53.257Z,78.10
2023-01-22T21:44:52.595Z,59.10
2023-01-22T21:49:52.691Z,50.00
2023-01-22T21:54:52.043Z,37.40
2023-01-22T21:59:51.816Z,29.00
2023-01-22T22:04:50.723Z,27.70
2023-01-22T22:09:49.591Z,22.10
2023-01-22T22:14:49.037Z,83.80
2023-01-22T22:19:48.286Z,146.60
2023-01-22T22:24:47.312Z,126.10
2023-01-22T22:29:46.538Z,115.80
2023-01-22T22:34:45.739Z,92.90
2023-01-22T22:39:44.937Z,81.70
2023-01-22T22:44:45.159Z,70.80
2023-01-22T22:49:43.467Z,128.80
2023-01-22T22:54:42.708Z,225.40
2023-01-22T22:59:43.235Z,184.80
2023-01-22T23:04:41.292Z,154.40
2023-01-22T23:09:41.527Z,129.40
2023-01-22T23:14:39.788Z,110.80
2023-01-22T23:19:39.309Z,138.20
2023-01-22T23:24:38.395Z,226.90
2023-01-22T23:29:38.564Z,198.00
2023-01-22T23:34:35.776Z,162.10
2023-01-22T23:39:36.109Z,136.40
2023-01-22T23:44:35.287Z,114.50
2023-01-22T23:49:34.454Z,99.40
2023-01-22T23:54:34.728Z,84.80
2023-01-22T23:59:33.934Z,238.40
